Terminal Aerodrome Forecast
Issued by NWS Tulsa, OK

Home | Current Version | Previous Version | Text Only | Print | Product List | Glossary On
Versions: 1 2 3 4 5 6 7 8 9 10 11 12 13 14 15 16 17 18 19 20 21 22 23 24
723
FTUS44 KTSA 300520
TAFTUL
TAF
KTUL 300520Z 3006/3106 13004KT P6SM SCT250
     FM301500 25007KT P6SM BKN100
     FM302000 19009KT P6SM VCTS SCT050CB BKN250
     FM310000 15007KT P6SM BKN250=

USA.gov is the U.S. government's official web portal to all federal, state and local government web resources and services.